Terminal Aerodrome Forecast
Issued by NWS

Home | Current Version | Previous Version | Text Only | Print | Product List | Glossary On
Versions: 1 2 3 4 5 6 7 8 9 10 11 12 13 14 15 16 17 18 19 20 21 22 23
000
FTUS45 KABQ 302300
TAFROW
TAF
KROW 302333Z 3100/3124 36010KT P6SM SCT080
      TEMPO 3100/3102 VRB20G30KT 6SM -TSRA SCT040 BKN080CB
     FM310200 36015G25KT P6SM VCSH SCT025 OVC040
     FM310600 36010KT P6SM VCSH SCT015 OVC040
     FM311100 36010KT P6SM SCT015 OVC040
     FM311600 03010KT P6SM SCT025 OVC060=

USA.gov is the U.S. government's official web portal to all federal, state and local government web resources and services.